createdAt,value
2023-04-21T00:02:09.103Z,20.63
2023-04-21T00:04:37.350Z,20.50
2023-04-21T00:07:05.479Z,19.73
2023-04-21T00:09:34.063Z,17.33
2023-04-21T00:12:02.037Z,21.77
2023-04-21T00:14:31.464Z,20.47
2023-04-21T00:17:00.335Z,21.23
2023-04-21T00:19:29.712Z,17.43
2023-04-21T00:22:00.974Z,18.63
2023-04-21T00:24:29.011Z,17.87
2023-04-21T00:26:57.169Z,19.10
2023-04-21T00:29:25.928Z,18.33
2023-04-21T00:31:56.030Z,20.10
2023-04-21T00:34:24.142Z,18.93
2023-04-21T00:36:52.853Z,19.13
2023-04-21T00:39:21.674Z,19.77
2023-04-21T00:41:49.857Z,19.93
2023-04-21T00:44:17.876Z,22.83
2023-04-21T00:46:45.855Z,17.83
2023-04-21T00:49:15.483Z,18.47
2023-04-21T00:51:44.365Z,20.80
2023-04-21T00:54:14.280Z,18.83
2023-04-21T00:56:42.322Z,25.63
2023-04-21T00:59:10.772Z,21.17
2023-04-21T01:01:39.975Z,22.10
2023-04-21T01:04:10.290Z,19.93
2023-04-21T01:06:40.667Z,19.73
2023-04-21T01:09:09.350Z,20.47
2023-04-21T01:11:37.461Z,21.67
2023-04-21T01:14:05.669Z,22.00
2023-04-21T01:16:34.539Z,20.73
2023-04-21T01:19:04.530Z,23.27
2023-04-21T01:21:40.499Z,22.10
2023-04-21T01:24:08.768Z,22.27
2023-04-21T01:26:37.408Z,21.73
2023-04-21T01:29:05.607Z,21.23
2023-04-21T01:31:34.279Z,25.17
2023-04-21T01:34:05.344Z,24.37
2023-04-21T01:36:34.088Z,21.93
2023-04-21T01:39:04.157Z,19.10
2023-04-21T01:41:32.585Z,23.40
2023-04-21T01:44:01.245Z,28.57
2023-04-21T01:46:30.066Z,26.57
2023-04-21T01:48:58.105Z,23.20
2023-04-21T01:51:27.725Z,25.20
2023-04-21T01:53:55.698Z,28.00
2023-04-21T01:56:25.308Z,22.10
2023-04-21T01:58:54.346Z,21.57
2023-04-21T02:01:22.468Z,22.73
2023-04-21T02:03:50.964Z,22.93
2023-04-21T02:06:19.200Z,26.07
2023-04-21T02:08:47.356Z,20.53
2023-04-21T02:11:15.529Z,19.80
2023-04-21T02:13:44.833Z,21.40
2023-04-21T02:16:14.252Z,24.03
2023-04-21T02:18:44.609Z,24.47
2023-04-21T02:21:12.726Z,24.77
2023-04-21T02:23:40.796Z,23.53
2023-04-21T02:26:08.871Z,21.73
2023-04-21T02:28:36.814Z,25.17
2023-04-21T02:31:06.526Z,24.03
2023-04-21T02:33:35.106Z,22.57
2023-04-21T02:36:03.374Z,26.20
2023-04-21T02:38:31.499Z,29.87
2023-04-21T02:40:59.961Z,23.67
2023-04-21T02:43:27.959Z,21.03
2023-04-21T02:45:56.400Z,24.97
2023-04-21T02:48:26.857Z,22.10
2023-04-21T02:50:55.205Z,28.57
2023-04-21T02:53:23.777Z,27.37
2023-04-21T02:55:52.068Z,23.00
2023-04-21T02:58:20.042Z,24.00
2023-04-21T03:00:48.147Z,24.17
2023-04-21T03:03:17.670Z,25.03
2023-04-21T03:05:47.099Z,21.40
2023-04-21T03:08:16.258Z,26.93
2023-04-21T03:10:44.313Z,25.53
2023-04-21T03:13:12.952Z,23.60
2023-04-21T03:15:40.943Z,26.17
2023-04-21T03:18:08.959Z,26.00
2023-04-21T03:20:37.461Z,21.77
2023-04-21T03:23:06.825Z,23.03
2023-04-21T03:25:34.748Z,23.90
2023-04-21T03:28:02.727Z,23.20
2023-04-21T03:30:30.872Z,26.00
2023-04-21T03:32:59.481Z,22.87
2023-04-21T03:35:27.855Z,21.77
2023-04-21T03:37:56.516Z,21.87
2023-04-21T03:40:26.337Z,23.60
2023-04-21T03:42:54.332Z,23.43
2023-04-21T03:45:23.852Z,23.00
2023-04-21T03:47:56.825Z,18.60
2023-04-21T03:50:25.004Z,34.27
2023-04-21T03:52:53.154Z,20.13
2023-04-21T03:55:21.215Z,22.03
2023-04-21T03:57:51.321Z,22.20
2023-04-21T04:00:19.321Z,21.43
2023-04-21T04:02:48.035Z,18.90
2023-04-21T04:05:16.295Z,21.33
2023-04-21T04:07:45.040Z,19.90
2023-04-21T04:10:13.783Z,20.13
2023-04-21T04:12:41.973Z,19.40
2023-04-21T04:15:12.031Z,21.57
2023-04-21T04:17:40.870Z,19.87
2023-04-21T04:20:09.910Z,16.80
2023-04-21T04:22:38.039Z,16.90
2023-04-21T04:25:06.651Z,21.90
2023-04-21T04:27:35.685Z,15.37
2023-04-21T04:30:06.437Z,15.60
2023-04-21T04:32:38.181Z,15.17
2023-04-21T04:35:06.791Z,15.20
2023-04-21T04:37:36.850Z,17.53
2023-04-21T04:40:06.916Z,18.93
2023-04-21T04:42:36.784Z,18.33
2023-04-21T04:45:05.257Z,22.83
2023-04-21T04:47:33.843Z,19.47
2023-04-21T04:50:03.484Z,20.50
2023-04-21T04:52:32.572Z,16.27
2023-04-21T04:55:01.518Z,17.00
2023-04-21T04:57:29.742Z,16.57
2023-04-21T04:59:58.511Z,17.77
2023-04-21T05:02:27.418Z,16.83
2023-04-21T05:04:56.345Z,16.43
2023-04-21T05:07:26.573Z,17.13
2023-04-21T05:09:54.901Z,14.33
2023-04-21T05:12:23.513Z,17.57
2023-04-21T05:14:52.266Z,16.90
2023-04-21T05:17:20.746Z,18.83
2023-04-21T05:19:55.642Z,16.07
2023-04-21T05:22:24.023Z,18.77
2023-04-21T05:24:53.729Z,22.63
2023-04-21T05:27:22.212Z,17.23
2023-04-21T05:29:51.202Z,16.83
2023-04-21T05:32:19.947Z,15.97
2023-04-21T05:34:50.315Z,14.00
2023-04-21T05:37:19.400Z,16.60
2023-04-21T05:39:48.550Z,14.53
2023-04-21T05:42:20.543Z,16.00
2023-04-21T05:44:49.129Z,15.27
2023-04-21T05:47:18.028Z,15.03
2023-04-21T05:49:50.550Z,16.70
2023-04-21T05:52:18.744Z,14.97
2023-04-21T05:54:47.587Z,16.43
2023-04-21T05:57:17.912Z,16.33
2023-04-21T05:59:46.924Z,21.60
2023-04-21T06:02:16.008Z,15.60
2023-04-21T06:04:45.804Z,16.10
2023-04-21T06:07:16.928Z,23.27
2023-04-21T06:09:51.643Z,17.50
2023-04-21T06:12:22.273Z,16.37
2023-04-21T06:14:53.749Z,13.53
2023-04-21T06:17:23.480Z,19.03
2023-04-21T06:19:54.405Z,15.60
2023-04-21T06:22:22.884Z,15.17
2023-04-21T06:24:51.770Z,14.07
2023-04-21T06:27:27.341Z,14.47
2023-04-21T06:29:56.803Z,14.17
2023-04-21T06:32:25.415Z,13.60
2023-04-21T06:34:55.803Z,14.17
2023-04-21T06:37:26.058Z,16.07
2023-04-21T06:40:00.259Z,17.53
2023-04-21T06:42:32.806Z,17.03
2023-04-21T06:45:01.695Z,14.70
2023-04-21T06:47:30.383Z,13.97
2023-04-21T06:50:00.058Z,20.30
2023-04-21T06:52:30.169Z,14.77
2023-04-21T06:55:00.732Z,17.27
2023-04-21T06:57:31.200Z,13.37
2023-04-21T07:00:00.549Z,14.77
2023-04-21T07:02:29.904Z,13.50
2023-04-21T07:04:58.201Z,15.53
2023-04-21T07:07:28.062Z,13.27
2023-04-21T07:10:02.529Z,18.23
2023-04-21T07:12:35.229Z,16.90
2023-04-21T07:15:04.492Z,14.90
2023-04-21T07:17:33.539Z,14.10
2023-04-21T07:20:02.131Z,14.67
2023-04-21T07:22:30.771Z,14.13
2023-04-21T07:24:59.129Z,14.70
2023-04-21T07:27:27.450Z,13.80
2023-04-21T07:29:58.924Z,12.77
2023-04-21T07:32:28.486Z,12.63
2023-04-21T07:35:00.899Z,16.77
2023-04-21T07:37:29.811Z,11.07
2023-04-21T07:39:58.143Z,17.13
2023-04-21T07:48:22.302Z,13.87
2023-04-21T07:50:51.774Z,14.20
2023-04-21T07:53:21.699Z,13.53
2023-04-21T07:55:51.941Z,13.70
2023-04-21T07:58:23.629Z,12.80
2023-04-21T08:01:26.321Z,12.37
2023-04-21T08:03:56.764Z,12.03
2023-04-21T08:06:25.575Z,16.33
2023-04-21T08:08:54.724Z,12.97
2023-04-21T08:11:23.451Z,12.33
2023-04-21T08:13:51.688Z,12.40
2023-04-21T08:16:20.805Z,14.80
2023-04-21T08:18:49.262Z,13.67
2023-04-21T08:21:19.776Z,12.60
2023-04-21T08:23:47.968Z,14.53
2023-04-21T08:26:16.847Z,12.33
2023-04-21T08:28:45.039Z,13.20
2023-04-21T08:31:13.864Z,12.57
2023-04-21T08:33:53.959Z,14.47
2023-04-21T08:36:29.950Z,11.83
2023-04-21T08:39:04.919Z,12.07
2023-04-21T08:41:35.970Z,13.67
2023-04-21T08:44:06.089Z,14.03
2023-04-21T08:46:44.247Z,14.53
2023-04-21T08:49:14.629Z,13.50
2023-04-21T08:51:51.503Z,15.07
2023-04-21T08:54:19.973Z,14.03
2023-04-21T09:03:03.406Z,13.83
2023-04-21T09:05:36.424Z,13.83
2023-04-21T09:08:13.514Z,14.97
2023-04-21T09:10:47.748Z,11.20
2023-04-21T09:13:16.950Z,15.50
2023-04-21T09:15:47.117Z,13.27
2023-04-21T09:18:17.105Z,14.93
2023-04-21T09:20:47.381Z,13.27
2023-04-21T09:23:32.159Z,15.43
2023-04-21T09:26:00.293Z,16.37
2023-04-21T09:28:33.517Z,16.27
2023-04-21T09:31:04.452Z,15.97
2023-04-21T09:33:42.622Z,12.70
2023-04-21T09:36:23.718Z,13.57
2023-04-21T09:39:25.131Z,14.27
2023-04-21T09:41:46.902Z,11.60
2023-04-21T09:44:15.701Z,15.20
2023-04-21T09:46:46.001Z,14.60
2023-04-21T09:49:18.149Z,15.90
2023-04-21T09:52:17.110Z,16.23
2023-04-21T09:54:46.757Z,14.20
2023-04-21T09:57:16.320Z,16.10
2023-04-21T09:59:47.741Z,14.93
2023-04-21T10:02:18.531Z,18.83
2023-04-21T10:04:47.500Z,16.03
2023-04-21T10:07:17.946Z,16.03
2023-04-21T10:09:52.153Z,15.03
2023-04-21T10:12:21.115Z,17.93
2023-04-21T10:15:01.025Z,16.40
2023-04-21T10:17:38.951Z,16.90
2023-04-21T10:20:09.810Z,17.23
2023-04-21T10:22:39.763Z,14.80
2023-04-21T10:25:11.612Z,17.30
2023-04-21T10:27:42.987Z,13.87
2023-04-21T10:30:22.556Z,18.13
2023-04-21T10:33:03.009Z,17.77
2023-04-21T10:36:00.288Z,19.47
2023-04-21T10:38:43.015Z,16.90
2023-04-21T10:41:31.820Z,16.03
2023-04-21T10:44:01.231Z,14.33
2023-04-21T10:46:44.932Z,18.83
2023-04-21T10:49:22.430Z,18.73
2023-04-21T10:52:07.303Z,14.63
2023-04-21T10:54:46.299Z,19.07
2023-04-21T10:57:17.886Z,14.63
2023-04-21T10:59:47.385Z,13.43
2023-04-21T11:02:17.747Z,13.13
2023-04-21T11:04:54.041Z,16.80
2023-04-21T11:07:23.372Z,14.97
2023-04-21T11:10:04.854Z,13.93
2023-04-21T11:12:47.123Z,16.83
2023-04-21T11:15:15.854Z,12.20
2023-04-21T11:17:53.755Z,15.63
2023-04-21T11:20:25.367Z,14.40
2023-04-21T11:22:54.118Z,14.53
2023-04-21T11:25:22.572Z,15.90
2023-04-21T11:28:02.641Z,19.53
2023-04-21T11:30:34.516Z,17.10
2023-04-21T11:33:03.133Z,16.77
2023-04-21T11:35:32.210Z,13.37
2023-04-21T11:38:00.328Z,15.43
2023-04-21T11:40:28.448Z,15.40
2023-04-21T11:42:57.889Z,13.60
2023-04-21T11:45:25.828Z,13.13
2023-04-21T11:48:13.214Z,15.63
2023-04-21T11:50:41.410Z,12.60
2023-04-21T11:53:09.631Z,12.60
2023-04-21T11:55:37.481Z,12.93
2023-04-21T11:58:06.713Z,14.40
2023-04-21T12:00:34.896Z,12.63
2023-04-21T12:03:03.762Z,12.13
2023-04-21T12:05:36.898Z,14.27
2023-04-21T12:08:06.125Z,14.70
2023-04-21T12:10:33.966Z,14.87
2023-04-21T12:13:01.890Z,11.87
2023-04-21T12:15:31.812Z,8.63
2023-04-21T12:17:59.704Z,11.40
2023-04-21T12:20:31.096Z,6.60
2023-04-21T12:22:59.202Z,6.73
2023-04-21T12:25:27.491Z,5.23
2023-04-21T12:27:59.254Z,4.53
2023-04-21T12:30:27.303Z,5.13
2023-04-21T12:32:56.722Z,5.57
2023-04-21T12:35:24.861Z,3.80
2023-04-21T12:37:53.032Z,3.17
2023-04-21T12:40:21.158Z,3.77
2023-04-21T12:42:49.597Z,3.70
2023-04-21T12:45:17.494Z,3.43
2023-04-21T12:47:46.876Z,3.77
2023-04-21T12:50:17.162Z,3.00
2023-04-21T12:52:45.016Z,2.77
2023-04-21T12:55:13.344Z,2.93
2023-04-21T12:57:41.203Z,2.93
2023-04-21T13:00:12.210Z,2.70
2023-04-21T13:02:40.344Z,3.93
2023-04-21T13:05:10.135Z,3.33
2023-04-21T13:07:39.733Z,2.63
2023-04-21T13:10:08.635Z,3.53
2023-04-21T13:12:36.577Z,4.13
2023-04-21T13:15:04.867Z,3.37
2023-04-21T13:17:32.830Z,5.03
2023-04-21T13:20:00.722Z,4.77
2023-04-21T13:22:28.578Z,4.37
2023-04-21T13:24:57.771Z,3.10
2023-04-21T13:27:25.632Z,3.43
2023-04-21T13:29:54.242Z,4.53
2023-04-21T13:32:22.444Z,3.33
2023-04-21T13:34:50.371Z,2.97
2023-04-21T13:37:18.219Z,4.80
2023-04-21T13:39:46.800Z,2.70
2023-04-21T13:42:15.973Z,2.73
2023-04-21T13:44:43.843Z,4.50
2023-04-21T13:47:11.685Z,3.30
2023-04-21T13:49:40.090Z,3.40
2023-04-21T13:52:07.904Z,6.93
2023-04-21T13:54:35.714Z,4.50
2023-04-21T13:57:03.574Z,3.27
2023-04-21T13:59:32.916Z,3.87
2023-04-21T14:02:00.987Z,3.30
2023-04-21T14:04:29.165Z,2.93
2023-04-21T14:06:57.152Z,5.10
2023-04-21T14:09:24.959Z,4.87
2023-04-21T14:11:52.881Z,2.20
2023-04-21T14:14:31.425Z,3.17
2023-04-21T14:17:07.508Z,4.67
2023-04-21T14:19:35.713Z,3.97
2023-04-21T14:22:04.342Z,4.53
2023-04-21T14:24:32.275Z,2.33
2023-04-21T14:27:00.334Z,3.70
2023-04-21T14:29:28.383Z,3.10
2023-04-21T14:31:58.581Z,4.33
2023-04-21T14:34:28.130Z,2.03
2023-04-21T14:36:56.184Z,3.30
2023-04-21T14:39:24.133Z,2.70
2023-04-21T14:41:51.952Z,2.10
2023-04-21T14:44:19.770Z,2.17
2023-04-21T14:47:01.047Z,2.00
2023-04-21T14:49:36.968Z,2.67
2023-04-21T14:52:05.305Z,2.77
2023-04-21T14:54:33.204Z,6.87
2023-04-21T14:57:17.884Z,3.40
2023-04-21T14:59:47.370Z,4.50
2023-04-21T15:02:15.657Z,2.13
2023-04-21T15:04:45.208Z,3.47
2023-04-21T15:07:13.659Z,4.03
2023-04-21T15:09:45.399Z,2.67
2023-04-21T15:12:14.589Z,2.40
2023-04-21T15:14:42.562Z,2.63
2023-04-21T15:17:10.872Z,2.53
2023-04-21T15:19:38.981Z,2.80
2023-04-21T15:22:08.244Z,2.57
2023-04-21T15:24:37.366Z,4.67
2023-04-21T15:27:05.280Z,2.40
2023-04-21T15:29:34.628Z,2.80
2023-04-21T15:32:03.082Z,5.37
2023-04-21T15:34:31.570Z,4.03
2023-04-21T15:36:59.827Z,3.17
2023-04-21T15:39:29.215Z,9.00
2023-04-21T15:41:57.351Z,4.03
2023-04-21T15:44:26.110Z,3.90
2023-04-21T15:46:54.329Z,3.00
2023-04-21T15:49:24.480Z,2.43
2023-04-21T15:51:54.161Z,5.67
2023-04-21T15:54:22.914Z,2.00
2023-04-21T15:56:52.501Z,2.10
2023-04-21T15:59:22.392Z,5.63
2023-04-21T16:01:53.234Z,3.90
2023-04-21T16:04:21.589Z,2.43
2023-04-21T16:06:52.183Z,3.30
2023-04-21T16:09:21.324Z,4.40
2023-04-21T16:11:52.062Z,3.17
2023-04-21T16:14:21.766Z,2.10
2023-04-21T16:16:49.712Z,5.47
2023-04-21T16:19:18.022Z,2.33
2023-04-21T16:21:46.063Z,4.33
2023-04-21T16:24:14.418Z,5.00
2023-04-21T16:26:42.468Z,1.80
2023-04-21T16:29:10.426Z,7.30
2023-04-21T16:31:40.949Z,2.57
2023-04-21T16:34:09.031Z,3.97
2023-04-21T16:36:37.077Z,3.20
2023-04-21T16:39:06.555Z,2.00
2023-04-21T16:41:37.969Z,3.23
2023-04-21T16:44:05.853Z,2.07
2023-04-21T16:46:33.936Z,2.87
2023-04-21T16:49:04.366Z,2.03
2023-04-21T16:51:32.302Z,1.70
2023-04-21T16:54:00.462Z,2.20
2023-04-21T16:56:28.288Z,3.33
2023-04-21T16:58:56.702Z,4.50
2023-04-21T17:01:24.815Z,3.33
2023-04-21T17:03:54.216Z,3.13
2023-04-21T17:06:26.395Z,3.27
2023-04-21T17:08:59.539Z,2.43
2023-04-21T17:11:28.655Z,2.00
2023-04-21T17:13:56.451Z,2.67
2023-04-21T17:16:24.383Z,5.70
2023-04-21T17:18:52.239Z,4.87
2023-04-21T17:21:20.645Z,6.50
2023-04-21T17:23:50.253Z,4.73
2023-04-21T17:26:18.106Z,4.27
2023-04-21T17:28:46.274Z,5.47
2023-04-21T17:31:16.471Z,2.40
2023-04-21T17:33:45.037Z,3.77
2023-04-21T17:36:13.390Z,3.23
2023-04-21T17:38:43.158Z,5.23
2023-04-21T17:41:12.612Z,2.57
2023-04-21T17:43:40.670Z,2.90
2023-04-21T17:46:08.673Z,2.93
2023-04-21T17:48:36.671Z,2.97
2023-04-21T17:51:04.880Z,6.60
2023-04-21T17:53:33.257Z,6.07
2023-04-21T17:56:01.629Z,7.07
2023-04-21T17:58:30.846Z,3.33
2023-04-21T18:00:59.295Z,3.77
2023-04-21T18:03:27.755Z,3.17
2023-04-21T18:05:56.745Z,2.97
2023-04-21T18:08:24.782Z,7.03
2023-04-21T18:10:52.700Z,2.83
2023-04-21T18:13:20.582Z,10.80
2023-04-21T18:15:50.013Z,10.83
2023-04-21T18:18:18.111Z,13.63
2023-04-21T18:20:48.235Z,5.90
2023-04-21T18:23:16.417Z,4.03
2023-04-21T18:25:44.293Z,2.53
2023-04-21T18:28:12.747Z,4.73
2023-04-21T18:30:41.390Z,3.17
2023-04-21T18:33:11.475Z,2.67
2023-04-21T18:35:39.585Z,3.80
2023-04-21T18:38:10.511Z,4.97
2023-04-21T18:40:40.363Z,3.23
2023-04-21T18:43:09.626Z,4.90
2023-04-21T18:45:38.514Z,3.03
2023-04-21T18:48:07.003Z,3.07
2023-04-21T18:50:39.889Z,4.27
2023-04-21T18:53:09.214Z,4.03
2023-04-21T18:55:37.556Z,7.13
2023-04-21T18:58:07.404Z,2.90
2023-04-21T19:00:38.739Z,4.40
2023-04-21T19:03:07.102Z,2.50
2023-04-21T19:05:36.805Z,3.63
2023-04-21T19:08:04.728Z,3.17
2023-04-21T19:10:35.590Z,3.87
2023-04-21T19:13:03.614Z,4.33
2023-04-21T19:15:31.480Z,7.33
2023-04-21T19:17:59.405Z,5.27
2023-04-21T19:20:27.432Z,4.97
2023-04-21T19:22:56.620Z,4.23
2023-04-21T19:25:24.524Z,3.90
2023-04-21T19:27:52.363Z,8.03
2023-04-21T19:30:21.627Z,9.10
2023-04-21T19:32:49.510Z,7.40
2023-04-21T19:35:17.498Z,5.90
2023-04-21T19:37:45.443Z,7.37
2023-04-21T19:40:15.144Z,5.33
2023-04-21T19:42:42.974Z,3.37
2023-04-21T19:45:11.657Z,1.90
2023-04-21T19:47:39.665Z,1.40
2023-04-21T19:50:09.001Z,1.70
2023-04-21T19:52:37.147Z,1.40
2023-04-21T19:55:05.635Z,3.80
2023-04-21T19:57:35.485Z,3.10
2023-04-21T20:00:05.685Z,1.30
2023-04-21T20:02:33.739Z,2.37
2023-04-21T20:05:01.935Z,1.20
2023-04-21T20:07:29.905Z,1.00
2023-04-21T20:09:57.695Z,0.80
2023-04-21T20:12:26.090Z,1.57
2023-04-21T20:14:55.577Z,1.07
2023-04-21T20:17:23.500Z,1.17
2023-04-21T20:19:52.968Z,2.67
2023-04-21T20:22:20.918Z,1.70
2023-04-21T20:24:49.484Z,0.90
2023-04-21T20:27:17.292Z,1.20
2023-04-21T20:29:46.435Z,1.50
2023-04-21T20:32:17.696Z,1.00
2023-04-21T20:34:45.739Z,0.73
2023-04-21T20:37:13.557Z,0.73
2023-04-21T20:39:42.743Z,1.27
2023-04-21T20:42:13.956Z,2.40
2023-04-21T20:44:42.868Z,1.17
2023-04-21T20:47:11.572Z,2.50
2023-04-21T20:49:42.484Z,0.90
2023-04-21T20:52:10.810Z,1.10
2023-04-21T20:54:38.854Z,1.47
2023-04-21T20:57:07.385Z,0.80
2023-04-21T20:59:35.942Z,0.93
2023-04-21T21:02:04.906Z,1.53
2023-04-21T21:04:33.335Z,1.00
2023-04-21T21:07:03.122Z,2.53
2023-04-21T21:09:32.069Z,1.07
2023-04-21T21:12:00.730Z,1.17
2023-04-21T21:14:28.735Z,1.40
2023-04-21T21:16:56.886Z,1.13
2023-04-21T21:19:24.944Z,1.17
2023-04-21T21:21:53.081Z,1.00
2023-04-21T21:24:22.621Z,1.33
2023-04-21T21:26:50.750Z,1.10
2023-04-21T21:29:19.178Z,1.33
2023-04-21T21:31:47.188Z,2.40
2023-04-21T21:34:15.336Z,2.77
2023-04-21T21:36:43.592Z,1.87
2023-04-21T21:39:11.870Z,2.53
2023-04-21T21:41:43.912Z,1.57
2023-04-21T21:44:12.268Z,3.00
2023-04-21T21:46:40.483Z,1.40
2023-04-21T21:49:08.807Z,1.57
2023-04-21T21:51:36.791Z,1.40
2023-04-21T21:54:05.603Z,3.67
2023-04-21T21:56:36.511Z,1.27
2023-04-21T21:59:07.065Z,3.20
2023-04-21T22:01:35.276Z,1.80
2023-04-21T22:04:04.966Z,2.67
2023-04-21T22:09:21.183Z,2.50
2023-04-21T22:11:49.653Z,4.03
2023-04-21T22:14:23.156Z,3.00
2023-04-21T22:16:54.042Z,2.03
2023-04-21T22:19:32.108Z,1.10
2023-04-21T22:22:04.433Z,2.60
2023-04-21T22:24:33.838Z,2.67
2023-04-21T22:27:02.173Z,1.70
2023-04-21T22:29:32.187Z,1.80
2023-04-21T22:32:00.646Z,2.07
2023-04-21T22:34:29.048Z,4.13
2023-04-21T22:36:57.842Z,2.93
2023-04-21T22:39:26.047Z,3.40
2023-04-21T22:41:54.435Z,1.30
2023-04-21T22:44:22.731Z,3.43
2023-04-21T22:46:52.693Z,2.27
2023-04-21T22:49:20.957Z,2.27
2023-04-21T22:51:50.345Z,2.57
2023-04-21T22:54:18.718Z,2.73
2023-04-21T22:56:47.085Z,2.33
2023-04-21T22:59:15.214Z,2.97
2023-04-21T23:01:43.435Z,1.30
2023-04-21T23:04:13.261Z,1.57
2023-04-21T23:06:41.495Z,1.77
2023-04-21T23:09:09.743Z,1.83
2023-04-21T23:11:37.798Z,4.40
2023-04-21T23:14:06.042Z,2.63
2023-04-21T23:16:34.418Z,1.63
2023-04-21T23:19:02.665Z,2.80
2023-04-21T23:21:32.745Z,1.73
2023-04-21T23:24:01.125Z,1.60
2023-04-21T23:26:29.371Z,2.97
2023-04-21T23:28:57.598Z,1.63
2023-04-21T23:31:26.706Z,2.03
2023-04-21T23:33:54.730Z,1.93
2023-04-21T23:36:22.784Z,2.93
2023-04-21T23:38:52.416Z,3.50
2023-04-21T23:41:20.968Z,2.73
2023-04-21T23:43:49.781Z,2.67
2023-04-21T23:46:18.058Z,2.87
2023-04-21T23:48:46.262Z,3.60
2023-04-21T23:51:15.811Z,3.30
2023-04-21T23:53:50.136Z,1.87
2023-04-21T23:56:19.636Z,2.97
2023-04-21T23:58:47.811Z,4.33
